Time;durP1;ratioP1;P1;durP2;ratioP2;P2;SDS_P1;SDS_P2;PMS_P1;PMS_P2;Temp;Humidity;BMP_temperature;BMP_pressure;BME280_temperature;BME280_humidity;BME280_pressure;Samples;Min_cycle;Max_cycle;Signal;HPM_P1;HPM_P2
2022/05/17 00:01:25;;;;;;;6.50;3.50;;;;;;;14.51;72.25;101953.13;4964006;28;20029;-56
2022/05/17 00:03:50;;;;;;;10.18;3.92;;;;;;;14.42;72.37;101961.25;4964481;28;20065;-55
2022/05/17 00:06:16;;;;;;;8.73;3.80;;;;;;;14.33;72.77;101963.13;4967895;28;20432;-55
2022/05/17 00:08:41;;;;;;;7.57;3.45;;;;;;;14.31;73.15;101959.78;4970109;28;20154;-56
2022/05/17 00:11:09;;;;;;;13.20;3.40;;;;;;;14.26;73.21;101951.44;4963690;28;20039;-56
2022/05/17 00:13:34;;;;;;;6.43;3.30;;;;;;;14.30;73.22;101944.75;4965316;28;20038;-54
2022/05/17 00:16:01;;;;;;;10.70;3.50;;;;;;;14.33;73.07;101951.59;4967658;28;20111;-56
2022/05/17 00:18:26;;;;;;;10.18;3.83;;;;;;;14.31;73.31;101941.06;4970592;28;20033;-56
2022/05/17 00:20:52;;;;;;;8.57;3.38;;;;;;;14.39;73.42;101949.06;4967162;28;20034;-54
2022/05/17 00:23:17;;;;;;;8.13;3.60;;;;;;;14.40;73.51;101936.53;4968462;28;20503;-55
2022/05/17 00:25:47;;;;;;;5.95;3.25;;;;;;;14.43;73.69;101944.25;4967716;28;20026;-56
2022/05/17 00:28:14;;;;;;;8.20;3.70;;;;;;;14.43;73.64;101942.41;4965008;28;20062;-56
2022/05/17 00:30:40;;;;;;;9.75;4.00;;;;;;;14.50;73.85;101943.44;4964021;28;20046;-56
2022/05/17 00:33:05;;;;;;;8.05;3.63;;;;;;;14.44;73.45;101932.56;4968455;28;20128;-55
2022/05/17 00:35:31;;;;;;;7.65;3.17;;;;;;;14.44;73.21;101935.22;4967380;28;20062;-55
2022/05/17 00:37:56;;;;;;;9.27;3.80;;;;;;;14.36;73.40;101938.72;4966248;28;20046;-56
2022/05/17 00:40:22;;;;;;;8.55;3.30;;;;;;;14.41;73.76;101930.19;4967037;28;20037;-56
2022/05/17 00:42:47;;;;;;;5.82;3.08;;;;;;;14.43;73.41;101937.06;4971358;28;20045;-56
2022/05/17 00:45:12;;;;;;;8.90;3.65;;;;;;;14.37;73.69;101931.53;4960790;28;20523;-54
2022/05/17 00:48:04;;;;;;;6.50;3.30;;;;;;;14.46;73.76;101930.59;4967677;28;20037;-55
2022/05/17 00:50:34;;;;;;;9.10;3.20;;;;;;;14.34;73.70;101937.22;4961075;28;20068;-54
2022/05/17 00:53:06;;;;;;;9.25;3.22;;;;;;;14.42;73.59;101942.56;4963655;28;20603;-56
2022/05/17 00:55:37;;;;;;;8.88;3.30;;;;;;;14.46;73.62;101936.75;4967063;28;20114;-57
2022/05/17 00:58:27;;;;;;;10.18;3.47;;;;;;;14.49;73.72;101933.75;4965874;28;20873;-54
2022/05/17 01:01:03;;;;;;;8.88;3.65;;;;;;;14.52;73.84;101932.56;4965373;28;20042;-55
2022/05/17 01:03:46;;;;;;;7.72;3.70;;;;;;;14.50;73.88;101935.41;4967947;28;20449;-56
2022/05/17 01:06:13;;;;;;;7.47;3.67;;;;;;;14.40;73.97;101929.38;4961536;28;20046;-55
2022/05/17 01:08:38;;;;;;;8.07;3.53;;;;;;;14.38;74.16;101923.34;4962008;28;20026;-56
2022/05/17 01:11:03;;;;;;;7.55;3.50;;;;;;;14.44;74.27;101928.06;4962733;28;20900;-54
2022/05/17 01:16:13;;;;;;;6.57;3.10;;;;;;;14.48;74.11;101920.56;4962555;28;20046;-56
2022/05/17 01:18:41;;;;;;;8.18;3.95;;;;;;;14.50;74.19;101922.06;4963009;28;20027;-56
2022/05/17 01:21:08;;;;;;;10.87;3.80;;;;;;;14.48;74.18;101921.38;4969653;28;20041;-55
2022/05/17 01:23:33;;;;;;;8.52;4.00;;;;;;;14.55;74.76;101917.03;4965050;28;20061;-53
2022/05/17 01:25:59;;;;;;;8.82;3.90;;;;;;;14.57;74.47;101917.69;4964839;28;20153;-55
2022/05/17 01:28:29;;;;;;;9.40;4.10;;;;;;;14.59;74.66;101916.69;4966864;28;20027;-55
2022/05/17 01:31:02;;;;;;;6.38;3.63;;;;;;;14.61;74.16;101918.19;4960225;28;20602;-55
2022/05/17 01:33:28;;;;;;;6.35;3.53;;;;;;;14.61;74.52;101920.00;4966543;28;20037;-54
2022/05/17 01:35:53;;;;;;;8.80;3.50;;;;;;;14.62;74.92;101932.38;4969276;28;20109;-55
2022/05/17 01:38:18;;;;;;;6.93;3.72;;;;;;;14.64;74.75;101933.88;4960700;28;20053;-54
2022/05/17 01:40:44;;;;;;;6.88;3.83;;;;;;;14.64;75.22;101930.38;4964538;28;20027;-55
2022/05/17 01:43:09;;;;;;;7.18;3.47;;;;;;;14.68;75.33;101937.88;4970158;28;20483;-56
2022/05/17 01:45:34;;;;;;;7.30;3.67;;;;;;;14.67;75.69;101933.53;4969699;28;20064;-56
2022/05/17 01:47:59;;;;;;;8.32;3.92;;;;;;;14.72;75.53;101933.84;4963109;28;20046;-56
2022/05/17 01:50:25;;;;;;;8.50;3.20;;;;;;;14.68;75.84;101931.69;4969978;28;20415;-55
2022/05/17 01:52:51;;;;;;;7.40;3.60;;;;;;;14.65;75.58;101937.38;4968625;28;20109;-56
2022/05/17 01:55:16;;;;;;;6.68;3.28;;;;;;;14.73;75.33;101927.50;4966317;28;20573;-55
2022/05/17 01:57:41;;;;;;;6.13;3.05;;;;;;;14.78;75.15;101929.69;4966211;28;20038;-56
2022/05/17 02:00:11;;;;;;;7.93;3.60;;;;;;;14.80;75.63;101938.38;4969499;28;20042;-56
2022/05/17 02:02:36;;;;;;;;;;;;;;;14.97;75.21;101934.63;4971253;28;20501;-56
2022/05/17 02:05:03;;;;;;;9.75;4.00;;;;;;;14.91;74.99;101931.81;4967088;28;19933;-55
2022/05/17 02:07:28;;;;;;;8.02;4.03;;;;;;;14.89;75.49;101929.31;4965052;28;20316;-55
2022/05/17 02:09:53;;;;;;;8.05;4.20;;;;;;;14.92;75.48;101934.31;4966668;28;20555;-56
2022/05/17 02:12:18;;;;;;;8.20;4.05;;;;;;;14.93;75.23;101922.59;4967299;28;20033;-56
2022/05/17 02:14:44;;;;;;;9.60;4.30;;;;;;;14.92;75.44;101928.94;4968432;28;20064;-56
2022/05/17 02:17:09;;;;;;;8.48;4.30;;;;;;;14.88;75.31;101930.31;4965547;28;20053;-56
2022/05/17 02:19:35;;;;;;;11.45;4.28;;;;;;;14.88;74.80;101928.47;4969189;28;20018;-56
2022/05/17 02:22:00;;;;;;;12.13;5.00;;;;;;;14.93;74.81;101927.94;4967153;28;20085;-56
2022/05/17 02:24:27;;;;;;;9.65;4.60;;;;;;;14.90;74.68;101930.97;4971119;28;20038;-56
2022/05/17 02:26:53;;;;;;;7.15;4.30;;;;;;;14.89;74.73;101926.63;4967145;28;20022;-56
2022/05/17 02:29:19;;;;;;;9.27;4.47;;;;;;;14.91;75.08;101934.47;4972646;28;20367;-55
2022/05/17 02:31:44;;;;;;;11.60;4.20;;;;;;;14.92;74.88;101928.94;4967230;28;20480;-56
2022/05/17 02:34:09;;;;;;;10.32;4.38;;;;;;;14.93;74.56;101930.63;4976004;28;20039;-56
2022/05/17 02:36:34;;;;;;;17.02;4.90;;;;;;;14.95;74.90;101941.16;4970076;28;20138;-56
2022/05/17 02:39:00;;;;;;;12.60;4.50;;;;;;;14.94;74.69;101942.97;4965064;28;20038;-56
2022/05/17 02:41:25;;;;;;;7.82;4.47;;;;;;;14.97;75.06;101937.28;4963288;28;20039;-56
2022/05/17 02:43:50;;;;;;;11.35;4.47;;;;;;;15.01;74.60;101946.63;4964764;28;20531;-55
2022/05/17 02:46:16;;;;;;;12.00;5.00;;;;;;;15.00;74.90;101947.63;4965642;28;20412;-56
2022/05/17 02:48:42;;;;;;;9.48;4.50;;;;;;;15.03;74.87;101944.63;4972471;28;20026;-56
2022/05/17 02:51:16;;;;;;;12.18;5.25;;;;;;;14.98;74.59;101949.66;4966796;28;20073;-56
2022/05/17 02:53:42;;;;;;;13.73;4.65;;;;;;;14.99;74.82;101950.50;4964656;28;20042;-56
2022/05/17 02:56:07;;;;;;;12.15;4.82;;;;;;;14.90;74.78;101952.38;4965013;28;20089;-55
2022/05/17 02:58:33;;;;;;;9.40;4.20;;;;;;;14.95;74.34;101950.00;4966946;28;20045;-56
2022/05/17 03:00:59;;;;;;;13.27;5.07;;;;;;;14.92;74.59;101946.84;4966836;28;22008;-56
2022/05/17 03:03:25;;;;;;;11.57;5.20;;;;;;;14.92;74.97;101949.50;4971057;28;20283;-55
2022/05/17 03:05:50;;;;;;;11.20;4.68;;;;;;;14.88;74.67;101941.84;4972622;28;20407;-56
2022/05/17 03:08:16;;;;;;;10.00;5.43;;;;;;;14.90;74.96;101951.53;4967719;28;20030;-55
2022/05/17 03:10:41;;;;;;;11.75;5.07;;;;;;;14.90;74.66;101947.00;4964778;28;20065;-57
2022/05/17 03:13:10;;;;;;;11.57;5.30;;;;;;;14.86;74.74;101949.19;4964491;28;20117;-56
2022/05/17 03:15:36;;;;;;;13.13;4.72;;;;;;;14.84;74.58;101951.22;4968729;28;20113;-56
2022/05/17 03:18:01;;;;;;;10.20;4.90;;;;;;;14.90;74.54;101954.19;4967187;28;20127;-56
2022/05/17 03:20:26;;;;;;;11.45;5.05;;;;;;;14.82;74.77;101955.91;4974457;28;20424;-56
2022/05/17 03:22:51;;;;;;;11.80;5.70;;;;;;;14.84;74.86;101956.56;4969154;28;20064;-56
2022/05/17 03:25:17;;;;;;;13.05;5.80;;;;;;;14.85;74.72;101947.53;4969821;28;20035;-56
2022/05/17 03:27:42;;;;;;;10.02;5.57;;;;;;;14.81;74.67;101946.22;4969862;28;20046;-54
2022/05/17 03:30:08;;;;;;;13.30;5.68;;;;;;;14.79;74.85;101942.88;4970865;28;20118;-55
2022/05/17 03:32:33;;;;;;;10.65;5.50;;;;;;;14.78;74.66;101959.94;4970463;28;20015;-55
2022/05/17 03:34:58;;;;;;;11.10;5.28;;;;;;;14.72;74.70;101947.22;4969856;28;20022;-56
2022/05/17 03:37:23;;;;;;;11.35;5.40;;;;;;;14.66;74.88;101950.56;4968399;28;20038;-56
2022/05/17 03:39:51;;;;;;;17.45;5.55;;;;;;;14.59;75.17;101952.28;4970276;28;20511;-56
2022/05/17 03:42:17;;;;;;;15.30;5.85;;;;;;;14.48;75.35;101952.63;4970469;28;20038;-56
2022/05/17 03:44:42;;;;;;;12.52;5.68;;;;;;;14.44;75.45;101951.28;4970302;28;20034;-55
2022/05/17 03:47:08;;;;;;;22.30;6.70;;;;;;;14.37;76.05;101960.94;4967061;28;20042;-56
2022/05/17 03:49:36;;;;;;;10.20;5.68;;;;;;;14.25;76.14;101953.28;4969868;28;20089;-55
2022/05/17 03:52:02;;;;;;;11.85;5.50;;;;;;;14.25;76.47;101949.78;4969666;28;20027;-55
2022/05/17 03:54:28;;;;;;;14.65;5.88;;;;;;;14.31;76.67;101942.91;4969666;28;20023;-56
2022/05/17 03:56:53;;;;;;;12.55;5.90;;;;;;;14.36;76.86;101943.25;4964341;28;20081;-54
2022/05/17 03:59:19;;;;;;;14.63;5.70;;;;;;;14.38;76.69;101947.41;4968638;28;20053;-56
2022/05/17 04:01:44;;;;;;;11.23;5.90;;;;;;;14.41;76.86;101947.06;4964331;28;20027;-56
2022/05/17 04:04:11;;;;;;;11.48;6.00;;;;;;;14.41;76.96;101947.06;4964621;28;20085;-55
2022/05/17 04:06:36;;;;;;;11.00;5.40;;;;;;;14.43;76.77;101953.09;4963207;28;20090;-55
2022/05/17 04:09:02;;;;;;;9.88;5.85;;;;;;;14.50;76.60;101962.16;4966159;28;20059;-56
2022/05/17 04:11:27;;;;;;;9.65;5.65;;;;;;;14.50;76.52;101964.81;4972570;28;20033;-55
2022/05/17 04:13:53;;;;;;;12.68;5.70;;;;;;;14.48;76.79;101961.47;4970149;28;20550;-55
2022/05/17 04:16:19;;;;;;;12.18;5.60;;;;;;;14.50;77.31;101966.66;4969363;28;20039;-55
2022/05/17 04:18:46;;;;;;;14.80;6.47;;;;;;;14.55;76.82;101959.78;4964811;28;20062;-56
2022/05/17 04:21:12;;;;;;;15.57;5.90;;;;;;;14.56;76.61;101966.81;4965980;28;20074;-56
2022/05/17 04:23:38;;;;;;;14.57;5.63;;;;;;;14.51;77.07;101968.31;4966140;28;20631;-53
2022/05/17 04:26:03;;;;;;;16.95;6.63;;;;;;;14.51;77.05;101971.84;4966783;28;21148;-55
2022/05/17 04:28:28;;;;;;;12.35;6.82;;;;;;;14.46;77.48;101976.03;4962808;28;20031;-55
2022/05/17 04:30:55;;;;;;;12.27;6.47;;;;;;;14.46;77.33;101978.69;4966660;28;20495;-56
2022/05/17 04:33:21;;;;;;;17.20;6.50;;;;;;;14.41;77.81;101971.13;4968764;28;20034;-55
2022/05/17 04:35:46;;;;;;;15.40;6.55;;;;;;;14.44;77.88;101973.47;4969411;28;20836;-56
2022/05/17 04:38:11;;;;;;;9.65;6.15;;;;;;;14.50;77.80;101972.84;4964904;28;20039;-55
2022/05/17 04:40:37;;;;;;;10.40;6.22;;;;;;;14.60;77.89;101975.31;4965135;28;20058;-56
2022/05/17 04:43:02;;;;;;;16.48;6.03;;;;;;;14.68;78.01;101971.78;4963636;28;20035;-56
2022/05/17 04:45:28;;;;;;;14.82;6.10;;;;;;;14.75;77.50;101976.31;4965733;28;20029;-55
2022/05/17 04:47:53;;;;;;;12.82;6.35;;;;;;;14.80;77.53;101978.47;4969030;28;20077;-56
2022/05/17 04:50:19;;;;;;;15.73;6.40;;;;;;;14.84;77.96;101982.47;4966039;28;20400;-56
2022/05/17 04:52:47;;;;;;;12.45;6.38;;;;;;;14.85;77.95;101986.81;4966590;28;20492;-56
2022/05/17 04:55:14;;;;;;;13.93;6.00;;;;;;;14.82;77.88;101976.47;4963261;28;20035;-55
2022/05/17 04:57:39;;;;;;;11.38;6.28;;;;;;;14.88;77.96;101991.81;4961071;28;20035;-56
2022/05/17 05:00:11;;;;;;;11.00;6.28;;;;;;;14.91;78.11;101991.47;4965400;28;20041;-56
2022/05/17 05:02:37;;;;;;;14.02;6.57;;;;;;;14.93;78.26;101991.31;4964381;28;20038;-55
2022/05/17 05:05:04;;;;;;;13.30;6.57;;;;;;;14.95;78.28;101984.78;4965233;28;20102;-56
2022/05/17 05:07:29;;;;;;;15.75;6.63;;;;;;;15.02;78.18;101988.44;4967286;28;20110;-56
2022/05/17 05:09:54;;;;;;;10.45;6.57;;;;;;;15.04;77.97;101985.63;4965659;28;20157;-56
2022/05/17 05:12:20;;;;;;;15.40;6.53;;;;;;;15.12;78.22;101994.44;4962206;28;20062;-55
2022/05/17 05:14:45;;;;;;;15.30;7.00;;;;;;;15.13;78.15;102001.47;4967085;28;20523;-54
2022/05/17 05:17:10;;;;;;;17.02;6.82;;;;;;;15.16;78.32;102003.78;4965919;28;20042;-56
2022/05/17 05:19:36;;;;;;;11.95;6.70;;;;;;;15.18;78.40;101999.09;4969722;28;20034;-54
2022/05/17 05:22:02;;;;;;;15.50;6.97;;;;;;;15.24;78.54;102007.44;4968002;28;20031;-56
2022/05/17 05:24:27;;;;;;;11.77;7.18;;;;;;;15.27;78.65;102007.91;4966666;28;20108;-56
2022/05/17 05:26:52;;;;;;;14.60;7.88;;;;;;;15.28;78.18;102017.63;4965278;28;20203;-56
2022/05/17 05:29:17;;;;;;;13.73;7.20;;;;;;;15.34;78.36;102016.13;4968610;28;20105;-56
2022/05/17 05:31:43;;;;;;;16.90;7.97;;;;;;;15.35;78.34;102013.25;4971579;28;20030;-55
2022/05/17 05:34:08;;;;;;;15.43;7.85;;;;;;;15.36;78.16;102022.97;4970388;28;20031;-56
2022/05/17 05:36:33;;;;;;;15.80;7.50;;;;;;;15.34;77.88;102024.16;4968558;28;20046;-56
2022/05/17 05:38:59;;;;;;;14.82;7.75;;;;;;;15.34;78.30;102018.78;4934666;28;1010598;-55
2022/05/17 05:41:24;;;;;;;11.68;7.85;;;;;;;15.35;78.51;102023.97;4974666;28;20030;-54
2022/05/17 05:43:49;;;;;;;12.93;8.25;;;;;;;15.34;78.55;102027.66;4970136;28;20023;-56
2022/05/17 05:46:15;;;;;;;16.40;8.10;;;;;;;15.31;78.79;102027.13;4971602;28;20404;-56
2022/05/17 05:48:40;;;;;;;16.48;8.40;;;;;;;15.29;79.31;102031.84;4971350;28;20058;-55
2022/05/17 05:51:06;;;;;;;16.70;8.98;;;;;;;15.29;79.28;102031.84;4972518;28;20033;-55
2022/05/17 05:53:31;;;;;;;13.45;8.07;;;;;;;15.26;78.94;102035.69;4972512;28;20023;-55
2022/05/17 05:56:03;;;;;;;15.98;8.43;;;;;;;15.26;78.20;102030.34;4971195;28;20110;-56
2022/05/17 05:58:30;;;;;;;15.75;8.80;;;;;;;15.26;77.99;102034.84;4969202;28;20497;-56
2022/05/17 06:00:55;;;;;;;17.63;8.18;;;;;;;15.29;78.16;102026.47;4972290;28;20046;-56
2022/05/17 06:03:21;;;;;;;16.77;8.55;;;;;;;15.34;78.11;102033.00;4972145;28;20022;-55
2022/05/17 06:05:46;;;;;;;18.55;8.48;;;;;;;15.39;77.98;102024.47;4965867;28;20049;-56
2022/05/17 06:08:16;;;;;;;17.60;8.55;;;;;;;15.44;77.81;102033.63;4970015;28;20066;-55
2022/05/17 06:10:42;;;;;;;16.77;8.02;;;;;;;15.49;77.53;102041.13;4972258;28;20090;-56
2022/05/17 06:13:09;;;;;;;13.77;8.57;;;;;;;15.51;77.41;102036.44;4971901;28;20022;-56
2022/05/17 06:15:34;;;;;;;18.10;8.40;;;;;;;15.53;77.48;102042.47;4972536;28;20022;-56
2022/05/17 06:18:07;;;;;;;15.13;8.75;;;;;;;15.56;77.65;102047.47;4971982;28;20117;-55
2022/05/17 06:20:33;;;;;;;17.25;9.07;;;;;;;15.58;77.48;102045.47;4970652;28;20031;-55
2022/05/17 06:22:59;;;;;;;17.90;8.68;;;;;;;15.59;77.29;102052.50;4969927;28;20031;-54
2022/05/17 06:25:24;;;;;;;15.88;8.65;;;;;;;15.64;77.19;102049.31;4971327;28;20031;-54
2022/05/17 06:27:50;;;;;;;19.10;8.57;;;;;;;15.69;77.46;102050.47;4968456;28;20031;-54
2022/05/17 06:30:15;;;;;;;22.60;9.70;;;;;;;15.74;77.36;102045.41;4974474;28;20553;-54
2022/05/17 06:32:41;;;;;;;15.80;8.48;;;;;;;15.83;77.19;102043.53;4971025;28;20033;-55
2022/05/17 06:35:07;;;;;;;24.17;9.38;;;;;;;15.90;76.84;102046.31;4971555;28;20034;-55
2022/05/17 06:37:32;;;;;;;17.50;8.60;;;;;;;15.98;76.94;102043.63;4968643;28;20081;-54
2022/05/17 06:39:58;;;;;;;15.70;9.23;;;;;;;16.05;76.75;102044.56;4972268;28;20027;-55
2022/05/17 06:42:24;;;;;;;19.77;9.43;;;;;;;16.11;76.66;102043.84;4971328;28;20026;-55
2022/05/17 06:44:49;;;;;;;16.98;8.80;;;;;;;16.17;77.18;102045.00;4970014;28;20029;-55
2022/05/17 06:47:16;;;;;;;14.55;9.07;;;;;;;16.22;77.08;102051.50;4961555;28;20117;-56
2022/05/17 06:49:41;;;;;;;18.20;9.07;;;;;;;16.26;77.30;102055.50;4965170;28;20473;-55
2022/05/17 06:52:08;;;;;;;17.90;8.75;;;;;;;16.30;77.42;102059.47;4981251;28;20081;-54
2022/05/17 06:54:34;;;;;;;16.65;8.68;;;;;;;16.34;77.43;102057.28;4971483;28;20034;-55
2022/05/17 06:57:07;;;;;;;19.05;8.63;;;;;;;16.39;77.15;102062.94;4968878;28;20018;-55
2022/05/17 06:59:35;;;;;;;23.25;8.93;;;;;;;16.42;76.99;102067.94;4963505;28;20073;-55
2022/05/17 07:02:01;;;;;;;17.67;8.80;;;;;;;16.46;77.01;102073.78;4973158;28;20458;-56
2022/05/17 07:04:27;;;;;;;18.63;8.90;;;;;;;16.47;76.71;102065.53;4970727;28;20527;-55
2022/05/17 07:06:56;;;;;;;15.98;8.73;;;;;;;16.53;76.98;102066.69;4967578;28;20503;-55
2022/05/17 07:09:22;;;;;;;17.20;8.82;;;;;;;16.58;77.33;102065.13;4970672;28;20553;-54
2022/05/17 07:14:32;;;;;;;19.88;9.27;;;;;;;16.67;77.31;102060.56;4960121;28;20547;-56
2022/05/17 07:16:58;;;;;;;18.38;8.63;;;;;;;16.66;77.16;102065.09;4960914;28;20030;-55
2022/05/17 07:19:23;;;;;;;14.00;9.38;;;;;;;16.74;77.64;102074.91;4968430;28;20122;-56
2022/05/17 07:21:48;;;;;;;19.50;9.35;;;;;;;16.67;77.61;102079.34;4972182;28;20396;-55
2022/05/17 07:24:13;;;;;;;18.67;9.35;;;;;;;16.72;77.62;102079.63;4965861;28;20400;-56
2022/05/17 07:26:39;;;;;;;18.00;9.32;;;;;;;16.72;77.31;102077.78;4965880;28;20034;-56
2022/05/17 07:29:04;;;;;;;17.50;9.45;;;;;;;16.75;77.26;102073.91;4964937;28;20031;-55
2022/05/17 07:31:29;;;;;;;20.90;9.27;;;;;;;16.72;77.09;102063.53;4969458;28;20110;-56
2022/05/17 07:33:57;;;;;;;20.08;10.10;;;;;;;16.71;77.01;102067.22;4968914;28;20480;-56
2022/05/17 07:36:22;;;;;;;14.80;9.48;;;;;;;16.78;76.93;102073.56;4961602;28;20030;-53
2022/05/17 07:38:48;;;;;;;23.17;9.50;;;;;;;16.84;77.26;102064.78;4959864;28;20042;-55
2022/05/17 07:41:13;;;;;;;18.70;10.25;;;;;;;16.88;77.37;102057.19;4957514;28;20069;-54
2022/05/17 07:43:38;;;;;;;18.25;10.13;;;;;;;16.91;77.57;102054.16;4962111;28;20062;-54
2022/05/17 07:46:03;;;;;;;21.77;9.98;;;;;;;16.92;77.78;102053.13;4971107;28;20054;-56
2022/05/17 07:48:29;;;;;;;18.90;9.90;;;;;;;16.89;77.63;102061.56;4974382;28;20038;-54
2022/05/17 07:50:54;;;;;;;16.30;10.02;;;;;;;16.89;77.64;102070.44;4969869;28;20492;-55
2022/05/17 07:53:21;;;;;;;19.30;9.85;;;;;;;16.93;77.84;102079.78;4969778;28;20131;-54
2022/05/17 07:55:47;;;;;;;18.92;9.85;;;;;;;16.98;77.55;102085.44;4969738;28;20026;-54
2022/05/17 07:58:13;;;;;;;17.17;9.90;;;;;;;17.04;77.83;102073.13;4969386;28;20026;-54
2022/05/17 08:00:40;;;;;;;19.17;9.80;;;;;;;17.11;77.96;102078.63;4969640;28;20050;-54
2022/05/17 08:03:08;;;;;;;19.08;9.65;;;;;;;17.17;77.68;102084.09;4970001;28;20085;-55
2022/05/17 08:05:34;;;;;;;18.27;9.90;;;;;;;17.17;77.70;102089.44;4968746;28;20551;-54
2022/05/17 08:08:00;;;;;;;16.75;9.73;;;;;;;17.28;77.93;102088.16;4968839;28;20324;-53
2022/05/17 08:10:26;;;;;;;18.17;9.20;;;;;;;17.35;77.82;102086.44;4967784;28;20081;-56
2022/05/17 08:12:52;;;;;;;16.48;9.55;;;;;;;17.43;77.52;102098.91;4968911;28;20029;-55
2022/05/17 08:15:19;;;;;;;21.23;8.48;;;;;;;17.40;76.97;102100.13;4968240;28;20030;-56
2022/05/17 08:17:45;;;;;;;17.45;9.45;;;;;;;17.48;76.94;102096.50;4967107;28;20031;-55
2022/05/17 08:20:11;;;;;;;20.05;8.43;;;;;;;17.52;76.76;102095.94;4978810;28;20030;-56
2022/05/17 08:22:43;;;;;;;15.25;8.90;;;;;;;17.56;76.78;102099.94;4965255;28;20131;-56
2022/05/17 08:27:56;;;;;;;19.98;8.23;;;;;;;17.60;76.03;102093.16;4968886;28;20412;-56
2022/05/17 08:30:23;;;;;;;19.92;7.82;;;;;;;17.64;75.34;102102.53;4969575;28;20035;-56
2022/05/17 08:35:38;;;;;;;18.35;6.85;;;;;;;17.62;74.11;102103.72;4963484;28;20037;-56
2022/05/17 08:38:03;;;;;;;14.10;6.43;;;;;;;17.59;73.58;102091.50;4972268;28;20026;-55
2022/05/17 08:40:32;;;;;;;14.90;7.20;;;;;;;17.64;73.31;102089.09;4969926;28;20090;-55
2022/05/17 08:43:29;;;;;;;18.70;6.40;;;;;;;17.71;73.25;102091.06;4969547;28;20166;-56
2022/05/17 08:46:23;;;;;;;14.15;6.63;;;;;;;17.69;72.56;102083.19;4970060;28;20092;-56
2022/05/17 08:48:55;;;;;;;15.77;7.53;;;;;;;17.72;73.09;102074.75;4960248;28;20022;-55
2022/05/17 08:51:41;;;;;;;14.40;7.45;;;;;;;17.79;72.93;102067.59;4956371;28;20057;-56
2022/05/17 08:54:09;;;;;;;13.98;7.82;;;;;;;17.82;73.06;102069.09;4969245;28;20039;-54
2022/05/17 08:56:38;;;;;;;16.17;7.63;;;;;;;17.86;72.88;102056.94;4969764;28;20019;-55
2022/05/17 08:59:05;;;;;;;17.55;8.38;;;;;;;17.89;73.02;102062.75;4967917;28;20035;-55
2022/05/17 09:01:53;;;;;;;16.75;9.32;;;;;;;17.94;73.04;102059.53;4973883;28;20030;-56
2022/05/17 09:04:30;;;;;;;19.15;9.85;;;;;;;18.00;73.00;102074.06;4966325;28;20030;-54
2022/05/17 09:07:07;;;;;;;16.80;9.00;;;;;;;18.06;72.92;102068.75;4965465;28;20484;-55
2022/05/17 09:09:44;;;;;;;19.98;9.18;;;;;;;18.13;72.42;102064.28;4965570;28;20027;-56
2022/05/17 09:12:26;;;;;;;18.20;8.73;;;;;;;18.18;72.25;102069.06;4970530;28;20030;-55
2022/05/17 09:14:55;;;;;;;16.25;7.78;;;;;;;18.18;71.67;102058.31;4969217;28;20057;-54
2022/05/17 09:17:24;;;;;;;16.83;8.00;;;;;;;18.24;71.48;102058.41;4967633;28;20026;-56
2022/05/17 09:19:50;;;;;;;18.27;8.43;;;;;;;18.27;71.55;102066.09;4968886;28;20018;-55
2022/05/17 09:22:16;;;;;;;14.88;7.55;;;;;;;18.34;71.14;102059.94;4969525;28;20042;-55
2022/05/17 09:24:45;;;;;;;21.70;6.95;;;;;;;18.39;70.96;102066.41;4964812;28;20392;-56
2022/05/17 09:27:21;;;;;;;14.90;5.90;;;;;;;18.43;70.78;102059.59;4963845;28;20030;-54
2022/05/17 09:29:48;;;;;;;12.05;5.80;;;;;;;18.48;70.00;102056.34;4966075;28;20027;-56
2022/05/17 09:32:29;;;;;;;16.77;7.00;;;;;;;18.55;69.76;102058.09;4964842;28;20046;-56
2022/05/17 09:34:59;;;;;;;14.40;6.85;;;;;;;18.62;69.88;102052.78;4963011;28;20050;-56
2022/05/17 09:37:37;;;;;;;14.32;6.53;;;;;;;18.72;69.27;102057.81;4960426;28;20054;-56
2022/05/17 09:40:06;;;;;;;16.27;6.15;;;;;;;18.93;69.36;102051.56;4958981;28;20027;-56
2022/05/17 09:42:49;;;;;;;13.43;6.63;;;;;;;19.15;69.13;102059.41;4959528;28;20574;-56
2022/05/17 09:45:17;;;;;;;14.35;6.45;;;;;;;19.39;68.68;102059.97;4963110;28;20070;-55
2022/05/17 09:47:54;;;;;;;15.00;4.80;;;;;;;19.46;67.68;102068.91;4962522;28;20440;-55
2022/05/17 09:53:07;;;;;;;13.73;4.72;;;;;;;19.85;66.90;102062.88;4967781;28;20049;-55
2022/05/17 09:55:33;;;;;;;;;;;;;;;20.00;66.59;102058.19;4966611;28;20022;-56
2022/05/17 09:58:11;;;;;;;10.80;3.60;;;;;;;20.05;65.03;102055.69;4964235;28;19914;-56
2022/05/17 10:00:42;;;;;;;11.30;3.10;;;;;;;20.15;64.27;102059.88;4962105;28;20026;-55
2022/05/17 10:03:19;;;;;;;7.47;2.80;;;;;;;20.22;64.22;102055.31;4970186;28;20033;-56
2022/05/17 10:05:49;;;;;;;11.15;3.40;;;;;;;20.25;63.73;102046.84;4976082;28;20465;-55
2022/05/17 10:08:14;;;;;;;13.73;3.80;;;;;;;20.23;62.79;102044.31;4966495;28;20031;-55
2022/05/17 10:10:43;;;;;;;9.85;3.33;;;;;;;20.30;63.00;102034.38;4972277;28;20118;-56
2022/05/17 10:13:23;;;;;;;;;;;;;;;20.45;62.98;102038.78;4971696;28;20027;-55
2022/05/17 10:15:53;;;;;;;11.25;3.42;;;;;;;20.53;62.35;102019.66;4974919;28;19914;-55
2022/05/17 10:18:27;;;;;;;10.68;4.20;;;;;;;20.61;61.84;102028.41;4969051;28;20035;-55
2022/05/17 10:20:59;;;;;;;11.70;4.22;;;;;;;20.66;61.65;102027.78;4975401;28;20025;-56
2022/05/17 10:23:34;;;;;;;14.00;4.40;;;;;;;20.76;61.61;102013.84;4972108;28;20118;-56
2022/05/17 10:26:06;;;;;;;8.98;3.78;;;;;;;20.85;61.02;102020.72;4975881;28;20428;-56
2022/05/17 10:28:50;;;;;;;9.82;4.22;;;;;;;20.90;61.24;102016.34;4970690;28;20105;-55
2022/05/17 10:31:22;;;;;;;10.55;4.30;;;;;;;20.91;60.80;102031.50;4964078;28;20538;-56
2022/05/17 10:33:57;;;;;;;9.00;4.38;;;;;;;20.85;60.62;102016.16;4970526;28;20077;-56
2022/05/17 10:36:47;;;;;;;11.30;4.65;;;;;;;20.83;60.44;102015.53;4969884;28;20480;-55
2022/05/17 10:39:19;;;;;;;13.35;4.57;;;;;;;20.79;60.53;102025.06;4970351;28;20023;-55
2022/05/17 10:41:45;;;;;;;12.65;3.90;;;;;;;20.85;60.63;102018.00;4971579;28;20419;-55
2022/05/17 10:44:16;;;;;;;11.75;3.78;;;;;;;20.86;59.99;102023.22;4971186;28;20033;-55
2022/05/17 10:46:48;;;;;;;10.60;3.60;;;;;;;20.82;59.55;102021.13;4967234;28;20527;-55
2022/05/17 10:49:25;;;;;;;9.02;3.78;;;;;;;20.86;59.61;102017.81;4971317;28;20029;-55
2022/05/17 10:52:18;;;;;;;7.78;4.15;;;;;;;20.85;58.87;102018.00;4967533;28;20034;-56
2022/05/17 10:55:02;;;;;;;9.48;4.78;;;;;;;20.89;58.78;102013.84;4971214;28;20122;-55
2022/05/17 10:57:36;;;;;;;11.65;5.43;;;;;;;20.87;58.97;102016.75;4969337;28;20484;-55
2022/05/17 11:00:14;;;;;;;14.30;5.90;;;;;;;20.96;59.34;102014.66;4966975;28;20472;-56
2022/05/17 11:02:54;;;;;;;11.02;5.47;;;;;;;20.99;59.70;102009.66;4969186;28;20031;-55
2022/05/17 11:05:34;;;;;;;13.32;5.47;;;;;;;21.14;59.19;102003.22;4969091;28;20228;-55
2022/05/17 11:08:25;;;;;;;13.07;5.82;;;;;;;21.27;59.00;102011.28;4968683;28;20026;-56
2022/05/17 11:11:00;;;;;;;14.80;5.75;;;;;;;21.34;58.84;102006.69;4965415;28;20022;-55
2022/05/17 11:13:49;;;;;;;10.95;5.78;;;;;;;21.45;58.75;102007.91;4970748;28;20138;-55
2022/05/17 11:16:23;;;;;;;13.18;6.00;;;;;;;21.52;58.09;101997.91;4963713;28;20027;-55
2022/05/17 11:19:04;;;;;;;15.02;5.88;;;;;;;21.52;57.21;101993.31;4965391;28;20040;-56
2022/05/17 11:21:36;;;;;;;18.23;7.57;;;;;;;21.60;57.33;101984.94;4973967;28;20077;-55
2022/05/17 11:24:07;;;;;;;14.15;7.20;;;;;;;21.89;57.91;101980.84;4969886;28;20412;-56
2022/05/17 11:27:01;;;;;;;21.20;7.40;;;;;;;22.07;57.96;101965.78;4970971;28;20110;-56
2022/05/17 11:29:45;;;;;;;17.17;8.10;;;;;;;22.21;57.55;101964.63;4968269;28;20026;-56
2022/05/17 11:32:30;;;;;;;18.75;8.75;;;;;;;22.32;56.71;101968.50;4964987;28;20492;-56
2022/05/17 11:34:58;;;;;;;15.13;8.43;;;;;;;22.41;56.47;101959.88;4965617;28;20030;-56
2022/05/17 11:37:32;;;;;;;14.40;8.27;;;;;;;22.59;56.51;101969.09;4964315;28;20019;-55
2022/05/17 11:40:07;;;;;;;15.10;8.35;;;;;;;22.71;56.35;101965.44;4967491;28;20035;-54